Time;durP1;ratioP1;P1;durP2;ratioP2;P2;SDS_P1;SDS_P2;PMS_P1;PMS_P2;Temp;Humidity;BMP_temperature;BMP_pressure;BME280_temperature;BME280_humidity;BME280_pressure;Samples;Min_cycle;Max_cycle;Signal;HPM_P1;HPM_P2
2024/02/25 00:01:53;;;;;;;11.68;4.90;;;;;;;12.41;77.70;93027.41;5064851;28;20064;-75
2024/02/25 00:04:20;;;;;;;9.68;4.15;;;;;;;12.47;77.78;93049.69;5066800;28;20037;-75
2024/02/25 00:06:47;;;;;;;8.18;3.83;;;;;;;12.45;78.52;93051.69;5068516;28;20055;-76
2024/02/25 00:09:16;;;;;;;6.57;3.78;;;;;;;12.39;79.86;93047.44;5066949;28;20052;-75
2024/02/25 00:11:43;;;;;;;4.78;3.35;;;;;;;12.36;80.61;93047.91;5068798;28;20064;-75
2024/02/25 00:14:10;;;;;;;6.40;3.40;;;;;;;12.32;81.89;93046.78;5066444;28;20551;-75
2024/02/25 00:16:37;;;;;;;5.07;3.40;;;;;;;12.13;81.76;93031.44;5067554;28;20087;-75
2024/02/25 00:19:04;;;;;;;8.15;4.13;;;;;;;12.23;81.69;93057.41;5064762;28;20040;-75
2024/02/25 00:21:31;;;;;;;7.32;3.65;;;;;;;12.15;81.13;93052.59;5067835;28;20045;-74
2024/02/25 00:24:01;;;;;;;7.63;4.25;;;;;;;12.17;80.70;93058.28;5062259;28;20524;-75
2024/02/25 00:26:30;;;;;;;10.20;4.40;;;;;;;12.24;80.64;93071.06;5065557;28;20417;-75
2024/02/25 00:28:57;;;;;;;11.10;5.05;;;;;;;12.13;80.06;93046.91;5065203;28;20048;-75
2024/02/25 00:31:24;;;;;;;7.28;4.32;;;;;;;12.34;80.07;93073.09;5068661;28;20047;-75
2024/02/25 00:33:51;;;;;;;8.30;3.90;;;;;;;12.32;79.60;93075.91;5065698;28;20053;-75
2024/02/25 00:36:18;;;;;;;6.15;3.53;;;;;;;12.36;79.04;93077.00;5068078;28;20071;-75
2024/02/25 00:38:45;;;;;;;7.38;3.50;;;;;;;12.33;78.04;93072.31;5067256;28;20054;-75
2024/02/25 00:41:12;;;;;;;6.60;3.95;;;;;;;12.47;78.08;93090.91;5062271;28;20048;-75
2024/02/25 00:43:40;;;;;;;6.57;3.13;;;;;;;12.36;77.05;93086.53;5060796;28;20533;-75
2024/02/25 00:46:07;;;;;;;9.00;3.30;;;;;;;12.50;77.98;93094.84;5068715;28;20051;-75
2024/02/25 00:48:34;;;;;;;9.13;4.18;;;;;;;12.49;78.24;93095.84;5065063;28;20438;-75
2024/02/25 00:51:01;;;;;;;6.75;3.42;;;;;;;12.51;78.28;93096.41;5066280;28;20045;-75
2024/02/25 00:53:28;;;;;;;8.18;3.95;;;;;;;12.43;78.14;93082.84;5067610;28;20058;-75
2024/02/25 00:55:55;;;;;;;8.48;3.53;;;;;;;12.51;77.87;93093.81;5064745;28;20033;-75
2024/02/25 00:58:22;;;;;;;6.75;3.22;;;;;;;12.54;78.10;93091.56;5063740;28;20407;-75
2024/02/25 01:00:51;;;;;;;6.80;3.25;;;;;;;12.49;78.85;93085.53;5064144;28;20052;-75
2024/02/25 01:03:18;;;;;;;5.60;3.70;;;;;;;12.50;78.71;93085.28;5064084;28;20056;-75
2024/02/25 01:05:45;;;;;;;6.70;3.20;;;;;;;12.53;78.71;93097.75;5067528;28;20051;-75
2024/02/25 01:08:12;;;;;;;7.35;3.67;;;;;;;12.53;78.76;93086.63;5066742;28;20098;-75
2024/02/25 01:10:40;;;;;;;5.05;3.40;;;;;;;12.50;78.99;93093.03;5067332;28;20059;-75
2024/02/25 01:13:07;;;;;;;5.78;3.22;;;;;;;12.38;79.81;93098.19;5062883;28;20094;-75
2024/02/25 01:15:34;;;;;;;6.88;3.20;;;;;;;12.22;79.41;93060.97;5065770;28;20054;-75
2024/02/25 01:18:02;;;;;;;6.28;3.78;;;;;;;12.43;80.06;93084.63;5065867;28;20086;-75
2024/02/25 01:20:29;;;;;;;9.68;3.50;;;;;;;12.48;79.93;93094.25;5067386;28;20045;-75
2024/02/25 01:22:57;;;;;;;5.65;3.33;;;;;;;12.44;80.25;93088.78;5067456;28;20058;-75
2024/02/25 01:25:26;;;;;;;5.40;3.33;;;;;;;12.35;80.89;93088.31;5067934;28;20059;-75
2024/02/25 01:27:53;;;;;;;5.55;3.55;;;;;;;12.33;81.70;93084.41;5060157;28;20051;-75
2024/02/25 01:30:20;;;;;;;6.38;3.15;;;;;;;12.26;81.65;93087.06;5063449;28;20064;-75
2024/02/25 01:32:47;;;;;;;5.38;3.70;;;;;;;12.20;82.28;93067.38;5063762;28;20132;-76
2024/02/25 01:35:15;;;;;;;4.72;3.40;;;;;;;12.11;83.27;93070.28;5063315;28;20048;-75
2024/02/25 01:37:42;;;;;;;5.85;3.15;;;;;;;12.02;84.05;93069.78;5067359;28;20059;-75
2024/02/25 01:40:10;;;;;;;6.80;3.53;;;;;;;11.98;84.76;93071.22;5065180;28;20044;-75
2024/02/25 01:42:37;;;;;;;6.07;3.17;;;;;;;11.86;85.64;93066.06;5067400;28;20430;-75
2024/02/25 01:45:06;;;;;;;7.75;3.38;;;;;;;11.75;86.06;93065.03;5063057;28;20498;-74
2024/02/25 01:47:34;;;;;;;8.65;3.88;;;;;;;11.77;87.22;93062.25;5060644;28;20040;-75
2024/02/25 01:50:01;;;;;;;6.75;3.70;;;;;;;11.80;87.67;93061.03;5064967;28;20497;-74
2024/02/25 01:52:30;;;;;;;7.88;4.35;;;;;;;11.74;89.08;93053.19;5067126;28;20051;-75
2024/02/25 01:54:57;;;;;;;6.57;3.80;;;;;;;11.77;90.15;93069.97;5066060;28;20048;-75
2024/02/25 01:57:25;;;;;;;6.32;3.90;;;;;;;11.75;91.08;93064.25;5058252;28;20048;-75
2024/02/25 01:59:52;;;;;;;5.50;3.88;;;;;;;11.60;91.46;93047.44;5064471;28;20119;-75
2024/02/25 02:02:19;;;;;;;6.90;4.47;;;;;;;11.69;93.02;93055.63;5066278;28;20505;-75
2024/02/25 02:04:46;;;;;;;6.25;4.47;;;;;;;11.49;93.57;93041.25;5064591;28;20048;-75
2024/02/25 02:07:14;;;;;;;6.88;4.13;;;;;;;11.58;94.84;93048.66;5063862;28;20059;-74
2024/02/25 02:09:42;;;;;;;6.70;4.03;;;;;;;11.46;95.97;93048.63;5063972;28;20132;-74
2024/02/25 02:12:09;;;;;;;6.50;4.30;;;;;;;11.38;96.31;93047.13;5066678;28;20079;-74
2024/02/25 02:14:36;;;;;;;7.93;4.70;;;;;;;11.42;97.62;93044.91;5062828;28;20047;-74
2024/02/25 02:17:05;;;;;;;9.50;4.78;;;;;;;11.41;98.54;93043.34;5061597;28;20123;-74
2024/02/25 02:19:32;;;;;;;9.52;5.20;;;;;;;11.28;99.85;93032.22;5066758;28;20068;-75
2024/02/25 02:22:00;;;;;;;7.28;5.40;;;;;;;11.26;100.00;93034.25;5063515;28;20521;-75
2024/02/25 02:24:27;;;;;;;6.63;4.68;;;;;;;11.21;100.00;93029.75;5066224;28;20405;-74
2024/02/25 02:26:54;;;;;;;8.15;4.57;;;;;;;11.08;100.00;93030.69;5063337;28;20055;-74
2024/02/25 02:29:21;;;;;;;9.88;5.20;;;;;;;11.04;100.00;93018.50;5066304;28;20131;-74
2024/02/25 02:31:49;;;;;;;8.48;4.97;;;;;;;11.01;100.00;93030.00;5066111;28;20508;-75
2024/02/25 02:34:16;;;;;;;8.25;5.32;;;;;;;10.98;100.00;93032.22;5065605;28;20051;-75
2024/02/25 02:36:43;;;;;;;8.77;4.68;;;;;;;10.93;100.00;93020.78;5062426;28;20055;-75
2024/02/25 02:39:11;;;;;;;8.02;4.63;;;;;;;10.86;100.00;93009.00;5066552;28;20417;-74
2024/02/25 02:41:38;;;;;;;9.02;5.25;;;;;;;10.82;100.00;93022.31;5061248;28;20052;-75
2024/02/25 02:44:06;;;;;;;6.70;4.43;;;;;;;10.85;100.00;93022.88;5058649;28;20045;-74
2024/02/25 02:46:39;;;;;;;7.45;4.50;;;;;;;10.85;100.00;93021.09;5066605;28;20147;-74
2024/02/25 02:49:05;;;;;;;8.93;4.70;;;;;;;10.87;100.00;93024.22;5062164;28;20063;-75
2024/02/25 02:51:33;;;;;;;8.48;5.25;;;;;;;10.82;100.00;93022.31;5064980;28;20044;-75
2024/02/25 02:54:02;;;;;;;5.53;3.85;;;;;;;10.81;100.00;93018.19;5066690;28;20048;-74
2024/02/25 02:56:31;;;;;;;5.53;4.10;;;;;;;10.82;100.00;93029.22;5060652;28;20056;-74
2024/02/25 02:58:58;;;;;;;6.25;3.97;;;;;;;10.83;100.00;93026.44;5065357;28;20040;-75
2024/02/25 03:01:25;;;;;;;7.63;3.92;;;;;;;10.80;100.00;93031.22;5063222;28;20048;-75
2024/02/25 03:03:52;;;;;;;7.18;4.60;;;;;;;10.85;100.00;93026.22;5066069;28;20546;-75
2024/02/25 03:06:18;;;;;;;5.72;4.20;;;;;;;10.85;100.00;93028.81;5066405;28;20532;-74
2024/02/25 03:08:45;;;;;;;7.72;4.47;;;;;;;10.77;100.00;93023.94;5065475;28;20048;-74
2024/02/25 03:11:12;;;;;;;6.50;4.00;;;;;;;10.73;100.00;93018.44;5062887;28;20050;-74
2024/02/25 03:13:40;;;;;;;8.57;4.55;;;;;;;10.67;100.00;93017.53;5059842;28;20056;-74
2024/02/25 03:16:07;;;;;;;6.32;3.90;;;;;;;10.75;100.00;93025.94;5063989;28;20054;-74
2024/02/25 03:18:34;;;;;;;5.68;4.18;;;;;;;10.80;100.00;93021.72;5065914;28;20045;-74
2024/02/25 03:21:01;;;;;;;5.57;3.33;;;;;;;10.78;100.00;93022.97;5066092;28;20040;-75
2024/02/25 03:23:28;;;;;;;7.38;4.25;;;;;;;10.78;100.00;93022.97;5064397;28;20114;-75
2024/02/25 03:25:55;;;;;;;6.25;3.88;;;;;;;10.75;100.00;93031.88;5064238;28;20115;-75
2024/02/25 03:28:22;;;;;;;7.68;4.20;;;;;;;10.75;100.00;93013.91;5066489;28;20527;-75
2024/02/25 03:30:50;;;;;;;5.72;3.70;;;;;;;10.83;100.00;93026.44;5067200;28;20040;-74
2024/02/25 03:33:17;;;;;;;7.90;4.13;;;;;;;10.89;100.00;93039.44;5067699;28;20045;-75
2024/02/25 03:36:05;;;;;;;5.35;4.22;;;;;;;10.80;100.00;93024.28;5070014;28;20125;-75
2024/02/25 03:38:32;;;;;;;5.18;3.50;;;;;;;10.76;100.00;93038.59;5069681;28;20123;-74
2024/02/25 03:40:59;;;;;;;5.65;3.92;;;;;;;10.83;100.00;93031.59;5064723;28;20052;-75
2024/02/25 03:43:26;;;;;;;5.07;3.60;;;;;;;10.74;100.00;93039.81;5065757;28;20053;-75
2024/02/25 03:45:54;;;;;;;6.18;3.78;;;;;;;10.80;100.00;93036.38;5067190;28;20098;-75
2024/02/25 03:48:21;;;;;;;6.13;3.72;;;;;;;10.72;100.00;93034.06;5069789;28;20037;-75
2024/02/25 03:50:48;;;;;;;6.20;3.90;;;;;;;10.70;100.00;93036.88;5061772;28;20049;-74
2024/02/25 03:53:15;;;;;;;8.05;3.85;;;;;;;10.72;100.00;93044.34;5069175;28;20052;-75
2024/02/25 03:55:42;;;;;;;6.95;4.03;;;;;;;10.67;100.00;93042.44;5067444;28;20512;-75
2024/02/25 03:58:09;;;;;;;6.50;4.07;;;;;;;10.66;100.00;93028.78;5060033;28;20398;-75
2024/02/25 04:00:36;;;;;;;6.03;4.13;;;;;;;10.67;100.00;93035.53;5067525;28;20499;-74
2024/02/25 04:03:05;;;;;;;5.90;4.07;;;;;;;10.56;100.00;93026.72;5069287;28;20051;-73
2024/02/25 04:05:32;;;;;;;4.82;3.60;;;;;;;10.49;100.00;93015.75;5068554;28;20036;-73
2024/02/25 04:07:59;;;;;;;4.57;3.70;;;;;;;10.55;100.00;93019.22;5065624;28;20537;-74
2024/02/25 04:10:26;;;;;;;6.07;3.83;;;;;;;10.69;100.00;93036.09;5069347;28;20051;-74
2024/02/25 04:12:53;;;;;;;7.50;4.18;;;;;;;10.62;100.00;93027.69;5067125;28;20052;-74
2024/02/25 04:15:20;;;;;;;7.15;4.95;;;;;;;10.61;100.00;93033.81;5069122;28;20046;-74
2024/02/25 04:17:48;;;;;;;6.10;3.88;;;;;;;10.68;100.00;93047.38;5061813;28;20044;-74
2024/02/25 04:20:17;;;;;;;6.88;3.90;;;;;;;10.77;100.00;93044.50;5068977;28;20044;-74
2024/02/25 04:22:44;;;;;;;6.90;4.20;;;;;;;10.77;100.00;93049.63;5060738;28;20044;-74
2024/02/25 04:25:11;;;;;;;6.95;4.15;;;;;;;10.78;100.00;93046.84;5069058;28;20052;-74
2024/02/25 04:27:38;;;;;;;6.50;4.45;;;;;;;10.73;100.00;93049.28;5065285;28;20589;-74
2024/02/25 04:30:06;;;;;;;8.02;4.28;;;;;;;10.69;100.00;93053.28;5063326;28;20055;-74
2024/02/25 04:32:39;;;;;;;5.53;4.20;;;;;;;10.56;100.00;93034.44;5065944;28;20094;-74
2024/02/25 04:35:06;;;;;;;6.47;4.65;;;;;;;10.72;100.00;93050.28;5063528;28;20377;-74
2024/02/25 04:37:35;;;;;;;6.72;4.57;;;;;;;10.73;100.00;93046.72;5064391;28;20102;-74
2024/02/25 04:40:02;;;;;;;7.38;4.40;;;;;;;10.57;100.00;93042.94;5064822;28;20048;-74
2024/02/25 04:42:29;;;;;;;6.65;4.47;;;;;;;10.70;100.00;93057.44;5068591;28;20520;-74
2024/02/25 04:44:56;;;;;;;5.38;3.70;;;;;;;10.68;100.00;93060.22;5064933;28;20049;-75
2024/02/25 04:47:23;;;;;;;7.32;4.53;;;;;;;10.64;100.00;93056.50;5066315;28;20040;-74
2024/02/25 04:49:50;;;;;;;7.22;4.53;;;;;;;10.67;100.00;93061.22;5061087;28;20056;-75
2024/02/25 04:52:17;;;;;;;7.22;4.20;;;;;;;10.65;100.00;93059.84;5068301;28;20417;-74
2024/02/25 04:54:45;;;;;;;7.13;4.70;;;;;;;10.61;100.00;93056.13;5067867;28;20041;-74
2024/02/25 04:57:14;;;;;;;5.95;4.47;;;;;;;10.63;100.00;93062.63;5057842;28;20502;-74
2024/02/25 04:59:41;;;;;;;9.60;4.82;;;;;;;10.60;100.00;93060.47;5064211;28;20051;-74
2024/02/25 05:02:08;;;;;;;7.05;4.32;;;;;;;10.58;100.00;93062.47;5068280;28;20063;-74
2024/02/25 05:04:36;;;;;;;5.47;4.40;;;;;;;10.60;100.00;93049.44;5067553;28;20131;-74
2024/02/25 05:07:03;;;;;;;7.57;5.00;;;;;;;10.67;100.00;93070.69;5062894;28;20049;-74
2024/02/25 05:09:30;;;;;;;8.13;4.63;;;;;;;10.64;100.00;93066.75;5067585;28;20045;-74
2024/02/25 05:11:58;;;;;;;6.40;4.78;;;;;;;10.63;100.00;93070.34;5067926;28;20048;-74
2024/02/25 05:14:28;;;;;;;6.07;4.93;;;;;;;10.62;100.00;93065.41;5067810;28;20486;-74
2024/02/25 05:16:55;;;;;;;7.70;5.28;;;;;;;10.61;100.00;93061.28;5062791;28;20049;-74
2024/02/25 05:19:22;;;;;;;7.38;5.07;;;;;;;10.65;100.00;93070.13;5068073;28;20041;-73
2024/02/25 05:21:49;;;;;;;6.38;4.88;;;;;;;10.70;100.00;93070.28;5064920;28;20051;-74
2024/02/25 05:24:18;;;;;;;6.95;5.22;;;;;;;10.59;100.00;93070.97;5066781;28;20044;-74
2024/02/25 05:26:45;;;;;;;6.93;5.18;;;;;;;10.68;100.00;93073.06;5065893;28;20080;-73
2024/02/25 05:29:13;;;;;;;6.70;5.53;;;;;;;10.65;100.00;93076.03;5067088;28;20044;-73
2024/02/25 05:31:40;;;;;;;9.48;5.68;;;;;;;10.50;100.00;93055.03;5064043;28;20049;-73
2024/02/25 05:34:07;;;;;;;8.48;6.22;;;;;;;10.59;100.00;93081.25;5067834;28;20048;-73
2024/02/25 05:36:34;;;;;;;8.48;6.38;;;;;;;10.63;100.00;93077.25;5063044;28;20044;-73
2024/02/25 05:39:01;;;;;;;8.35;5.72;;;;;;;10.56;100.00;93077.34;5066906;28;20083;-74
2024/02/25 05:41:28;;;;;;;8.77;6.22;;;;;;;10.52;100.00;93071.81;5065146;28;20059;-73
2024/02/25 05:43:55;;;;;;;9.48;6.93;;;;;;;10.42;100.00;93061.22;5061816;28;20045;-73
2024/02/25 05:46:23;;;;;;;7.60;6.13;;;;;;;10.47;100.00;93076.81;5065770;28;20689;-73
2024/02/25 05:48:50;;;;;;;8.68;6.72;;;;;;;10.52;100.00;93084.66;5065489;28;20049;-74
2024/02/25 05:51:17;;;;;;;9.60;6.68;;;;;;;10.49;100.00;93081.72;5066369;28;20045;-73
2024/02/25 05:53:44;;;;;;;12.02;7.22;;;;;;;10.50;100.00;93078.94;5066765;28;20052;-73
2024/02/25 05:56:11;;;;;;;10.45;7.05;;;;;;;10.45;100.00;93078.03;5064708;28;20155;-74
2024/02/25 05:58:38;;;;;;;11.85;7.00;;;;;;;10.45;100.00;93080.59;5057179;28;20521;-73
2024/02/25 06:01:05;;;;;;;11.25;7.07;;;;;;;10.43;100.00;93080.81;5066426;28;20067;-74
2024/02/25 06:03:33;;;;;;;9.07;7.20;;;;;;;10.38;100.00;93078.06;5066285;28;20506;-73
2024/02/25 06:06:00;;;;;;;8.90;7.30;;;;;;;10.40;100.00;93081.19;5067137;28;20071;-74
2024/02/25 06:08:27;;;;;;;11.45;9.05;;;;;;;10.40;100.00;93076.84;5062673;28;20864;-74
2024/02/25 06:10:54;;;;;;;11.18;7.95;;;;;;;10.40;100.00;93074.28;5066387;28;20052;-74
2024/02/25 06:13:21;;;;;;;9.18;7.65;;;;;;;10.32;100.00;93079.66;5060511;28;20049;-74
2024/02/25 06:15:48;;;;;;;9.75;7.60;;;;;;;10.42;100.00;93076.63;5066033;28;20067;-74
2024/02/25 06:18:14;;;;;;;9.52;7.60;;;;;;;10.40;100.00;93083.75;5055366;28;20049;-74
2024/02/25 06:20:43;;;;;;;7.80;6.50;;;;;;;10.41;100.00;93077.63;5051295;28;20040;-74
2024/02/25 06:23:10;;;;;;;9.85;7.35;;;;;;;10.46;100.00;93085.50;5052315;28;20986;-74
2024/02/25 06:25:37;;;;;;;11.05;9.32;;;;;;;10.46;100.00;93092.44;5055739;28;20044;-74
2024/02/25 06:28:04;;;;;;;12.73;9.27;;;;;;;10.52;100.00;93089.00;5052365;28;20045;-74
2024/02/25 06:30:31;;;;;;;9.63;7.70;;;;;;;10.50;100.00;93091.00;5052148;28;20163;-74
2024/02/25 06:32:58;;;;;;;9.63;7.40;;;;;;;10.43;100.00;93086.69;5049236;28;20084;-74
2024/02/25 06:35:25;;;;;;;7.07;6.15;;;;;;;10.46;100.00;93079.59;5050279;28;20049;-74
2024/02/25 06:37:53;;;;;;;10.57;7.60;;;;;;;10.54;100.00;93090.38;5058183;28;20044;-74
2024/02/25 06:40:21;;;;;;;9.40;7.00;;;;;;;10.52;100.00;93091.59;5050812;28;20051;-75
2024/02/25 06:42:48;;;;;;;10.93;6.97;;;;;;;10.59;100.00;93092.31;5049670;28;20052;-75
2024/02/25 06:45:15;;;;;;;12.35;9.70;;;;;;;10.60;100.00;93080.25;5061151;28;20098;-75
2024/02/25 06:47:42;;;;;;;13.27;11.10;;;;;;;10.65;100.00;93088.13;5051763;28;20045;-75
2024/02/25 06:50:09;;;;;;;10.20;7.78;;;;;;;10.68;100.00;93090.25;5052130;28;20056;-75
2024/02/25 06:52:36;;;;;;;9.07;7.00;;;;;;;10.66;100.00;93079.41;5061626;28;20044;-75
2024/02/25 06:55:08;;;;;;;8.05;6.25;;;;;;;10.76;100.00;93079.69;5052984;28;20045;-74
2024/02/25 06:57:35;;;;;;;10.43;6.05;;;;;;;10.82;100.00;93094.25;5052098;28;20094;-74
2024/02/25 07:00:05;;;;;;;10.93;7.05;;;;;;;10.85;100.00;93087.09;5046489;28;20085;-74
2024/02/25 07:02:32;;;;;;;11.55;9.02;;;;;;;10.88;100.00;93097.75;5051897;28;20048;-75
2024/02/25 07:04:59;;;;;;;11.18;7.95;;;;;;;10.74;100.00;93073.97;5048678;28;20440;-75
2024/02/25 07:07:26;;;;;;;9.70;6.85;;;;;;;10.84;100.00;93094.06;5050462;28;20132;-75
2024/02/25 07:09:56;;;;;;;9.75;7.35;;;;;;;10.85;100.00;93087.91;5049993;28;20053;-75
2024/02/25 07:12:24;;;;;;;8.77;6.97;;;;;;;10.72;100.00;93068.28;5050802;28;20045;-75
2024/02/25 07:14:52;;;;;;;9.93;7.50;;;;;;;10.76;100.00;93089.97;5054677;28;20053;-75
2024/02/25 07:17:19;;;;;;;10.13;7.43;;;;;;;10.76;100.00;93084.03;5052533;28;20127;-75
2024/02/25 07:19:47;;;;;;;8.93;7.10;;;;;;;10.70;100.00;93067.72;5053066;28;20844;-74
2024/02/25 07:22:14;;;;;;;9.60;7.00;;;;;;;10.83;100.00;93084.75;5047697;28;20056;-74
2024/02/25 07:24:41;;;;;;;6.95;5.78;;;;;;;10.88;100.00;93077.19;5049775;28;20055;-74
2024/02/25 07:27:08;;;;;;;9.40;6.10;;;;;;;10.92;100.00;93065.47;5049535;28;20048;-75
2024/02/25 07:29:37;;;;;;;8.10;5.22;;;;;;;10.99;100.00;93067.97;5049801;28;20045;-75
2024/02/25 07:32:04;;;;;;;8.77;5.68;;;;;;;11.05;100.00;93076.59;5049155;28;20056;-75
2024/02/25 07:34:31;;;;;;;5.93;4.85;;;;;;;11.13;100.00;93071.19;5047900;28;20506;-75
2024/02/25 07:36:58;;;;;;;6.95;4.40;;;;;;;11.20;100.00;93069.31;5049597;28;20504;-75
2024/02/25 07:39:25;;;;;;;6.85;4.93;;;;;;;11.12;100.00;93043.13;5050295;28;20044;-75
2024/02/25 07:41:52;;;;;;;6.93;5.15;;;;;;;11.30;100.00;93050.03;5060893;28;20049;-75
2024/02/25 07:44:19;;;;;;;5.35;4.50;;;;;;;11.39;100.00;93066.69;5052470;28;20053;-75
2024/02/25 07:46:47;;;;;;;4.93;3.70;;;;;;;11.39;100.00;93051.25;5050839;28;20051;-75
2024/02/25 07:49:14;;;;;;;6.07;4.38;;;;;;;11.56;100.00;93064.31;5052588;28;20069;-75
2024/02/25 07:51:41;;;;;;;5.13;4.40;;;;;;;11.61;100.00;93051.56;5053190;28;20041;-75
2024/02/25 07:54:08;;;;;;;7.03;4.82;;;;;;;11.69;100.00;93053.06;5047260;28;20041;-75
2024/02/25 07:56:35;;;;;;;9.90;7.68;;;;;;;11.74;100.00;93050.59;5053930;28;20045;-74
2024/02/25 07:59:02;;;;;;;15.82;10.32;;;;;;;11.85;100.00;93050.84;5050522;28;20406;-75
2024/02/25 08:01:28;;;;;;;13.60;9.07;;;;;;;11.89;100.00;93044.25;5047111;28;20144;-75
2024/02/25 08:03:57;;;;;;;18.27;10.93;;;;;;;12.02;100.00;93046.63;5055760;28;20066;-75
2024/02/25 08:06:28;;;;;;;16.17;11.70;;;;;;;12.12;100.00;93047.88;5050101;28;21353;-75
2024/02/25 08:08:55;;;;;;;16.50;11.98;;;;;;;12.14;100.00;93048.47;5049653;28;20080;-75
2024/02/25 08:11:22;;;;;;;20.38;13.38;;;;;;;12.16;100.00;93030.97;5048708;28;20521;-75
2024/02/25 08:13:48;;;;;;;20.67;12.70;;;;;;;12.23;100.00;93036.03;5055148;28;20111;-75
2024/02/25 08:16:15;;;;;;;29.67;21.10;;;;;;;12.29;100.00;93035.13;5055644;28;20045;-75
2024/02/25 08:18:46;;;;;;;26.70;17.23;;;;;;;12.23;100.00;93020.56;5054197;28;20113;-75
2024/02/25 08:21:15;;;;;;;21.90;15.60;;;;;;;12.41;100.00;93032.56;5056259;28;20364;-75
2024/02/25 08:23:43;;;;;;;25.58;14.25;;;;;;;12.53;100.00;93037.69;5054329;28;20071;-74
2024/02/25 08:26:10;;;;;;;20.80;13.63;;;;;;;12.60;100.00;93032.44;5055978;28;20106;-75
2024/02/25 08:28:38;;;;;;;16.55;12.85;;;;;;;12.62;100.00;93027.81;5055844;28;20052;-75
2024/02/25 08:31:05;;;;;;;16.73;11.82;;;;;;;12.52;100.00;93020.66;5059209;28;20142;-75
2024/02/25 08:33:33;;;;;;;21.83;15.50;;;;;;;12.61;100.00;93034.78;5057991;28;20473;-75
2024/02/25 08:36:00;;;;;;;14.88;11.30;;;;;;;12.62;100.00;93028.63;5056195;28;20049;-75
2024/02/25 08:38:28;;;;;;;15.25;10.48;;;;;;;12.60;100.00;93030.66;5051789;28;20110;-76
2024/02/25 08:40:55;;;;;;;14.55;10.73;;;;;;;12.49;100.00;93021.13;5049784;28;20061;-75
2024/02/25 08:43:22;;;;;;;12.63;9.00;;;;;;;12.51;100.00;93037.91;5050360;28;20045;-76
2024/02/25 08:45:49;;;;;;;18.70;15.07;;;;;;;12.55;100.00;93038.25;5053086;28;20152;-75
2024/02/25 08:48:16;;;;;;;27.58;20.35;;;;;;;12.60;100.00;93030.66;5056663;28;20067;-76
2024/02/25 08:50:43;;;;;;;25.10;19.80;;;;;;;12.62;100.00;93032.97;5060290;28;20126;-76
2024/02/25 08:53:10;;;;;;;17.58;12.85;;;;;;;12.61;100.00;93036.56;5061322;28;20049;-75
2024/02/25 08:55:38;;;;;;;13.43;9.00;;;;;;;12.68;100.00;93030.28;5055256;28;20058;-76
2024/02/25 08:58:05;;;;;;;9.57;6.40;;;;;;;12.67;100.00;93038.22;5058997;28;20047;-75
2024/02/25 09:00:32;;;;;;;9.25;5.20;;;;;;;12.49;100.00;93023.72;5051968;28;20063;-75
2024/02/25 09:03:01;;;;;;;10.90;7.35;;;;;;;12.56;100.00;93035.44;5051070;28;20139;-76
2024/02/25 09:05:28;;;;;;;10.93;5.95;;;;;;;12.44;100.00;93029.53;5049001;28;20051;-75
2024/02/25 09:07:54;;;;;;;13.63;9.48;;;;;;;12.48;100.00;93037.56;5049950;28;20053;-75
2024/02/25 09:10:21;;;;;;;16.92;10.63;;;;;;;12.40;100.00;93018.88;5049358;28;20055;-76
2024/02/25 09:12:50;;;;;;;13.27;8.57;;;;;;;12.45;100.00;93033.66;5054647;28;20048;-75
2024/02/25 09:15:19;;;;;;;46.13;31.27;;;;;;;12.48;100.00;93030.66;5051581;28;20053;-75
2024/02/25 09:17:46;;;;;;;24.05;15.35;;;;;;;12.45;100.00;93035.47;5052897;28;20045;-76
2024/02/25 09:20:13;;;;;;;12.05;8.05;;;;;;;12.42;100.00;93034.13;5054954;28;20048;-76
2024/02/25 09:22:40;;;;;;;63.95;35.22;;;;;;;12.46;100.00;93032.69;5055639;28;20040;-75
2024/02/25 09:25:07;;;;;;;116.28;60.13;;;;;;;12.53;100.00;93027.38;5058105;28;20049;-75
2024/02/25 09:27:34;;;;;;;197.52;100.25;;;;;;;12.68;100.00;93037.22;5054036;28;20049;-75
2024/02/25 09:30:03;;;;;;;45.47;25.30;;;;;;;12.77;100.00;93022.97;5052740;28;20498;-75
2024/02/25 09:32:33;;;;;;;38.05;21.05;;;;;;;12.78;100.00;93018.63;5051870;28;20274;-75
2024/02/25 09:35:00;;;;;;;13.07;7.80;;;;;;;12.65;100.00;93014.50;5051587;28;20044;-75
2024/02/25 09:37:27;;;;;;;11.90;5.95;;;;;;;12.85;100.00;93021.06;5058889;28;20044;-74
2024/02/25 09:39:54;;;;;;;17.83;10.85;;;;;;;13.05;100.00;93023.25;5048861;28;20059;-74
2024/02/25 09:42:22;;;;;;;12.57;6.55;;;;;;;13.13;100.00;93017.72;5049639;28;20071;-74
2024/02/25 09:44:52;;;;;;;11.63;7.00;;;;;;;13.19;100.00;93021.19;5050683;28;20059;-74
2024/02/25 09:47:21;;;;;;;22.45;11.80;;;;;;;13.35;99.55;93017.88;5050498;28;20059;-75
2024/02/25 09:49:49;;;;;;;27.85;16.63;;;;;;;13.44;99.08;93023.44;5054335;28;20045;-75
2024/02/25 09:52:17;;;;;;;33.13;17.83;;;;;;;13.52;97.28;93017.13;5059998;28;20053;-75
2024/02/25 09:54:46;;;;;;;20.17;10.40;;;;;;;13.49;95.96;93022.78;5049063;28;20127;-75
2024/02/25 09:57:13;;;;;;;57.15;29.58;;;;;;;13.60;96.60;93018.56;5049059;28;20045;-75
2024/02/25 09:59:40;;;;;;;65.20;35.35;;;;;;;13.70;96.30;93002.47;5049730;28;20052;-75
2024/02/25 10:02:08;;;;;;;23.45;13.43;;;;;;;13.66;96.00;93009.09;5051584;28;20053;-76
2024/02/25 10:04:37;;;;;;;47.53;24.70;;;;;;;13.69;96.37;93006.84;5053892;28;20060;-75
2024/02/25 10:07:04;;;;;;;46.20;23.45;;;;;;;13.78;96.54;93004.66;5055625;28;20055;-76
2024/02/25 10:09:32;;;;;;;66.03;34.95;;;;;;;13.81;96.25;92999.03;5052081;28;20049;-75
2024/02/25 10:11:59;;;;;;;20.05;12.50;;;;;;;13.74;95.64;92991.44;5052718;28;20049;-75
2024/02/25 10:14:27;;;;;;;15.70;7.43;;;;;;;13.70;95.97;92990.34;5052131;28;20056;-75
2024/02/25 10:17:03;;;;;;;9.63;5.70;;;;;;;13.74;96.38;92981.09;5054433;28;20085;-75
2024/02/25 10:19:31;;;;;;;15.88;8.80;;;;;;;13.74;97.58;92977.72;5049456;28;20041;-75
2024/02/25 10:22:11;;;;;;;9.98;6.47;;;;;;;13.89;97.16;92980.56;5055627;28;20059;-75
2024/02/25 10:24:39;;;;;;;14.27;8.20;;;;;;;13.82;96.39;92979.94;5048827;28;20059;-75
2024/02/25 10:27:09;;;;;;;11.77;5.63;;;;;;;13.75;97.20;92972.34;5049433;28;20047;-75
2024/02/25 10:29:53;;;;;;;15.15;8.77;;;;;;;13.73;98.03;92955.53;5053364;28;20086;-75
2024/02/25 10:32:27;;;;;;;14.13;8.45;;;;;;;13.89;97.34;92959.13;5050181;28;20053;-75
2024/02/25 10:34:55;;;;;;;19.42;9.93;;;;;;;13.95;97.77;92954.81;5055783;28;20053;-75
2024/02/25 10:37:25;;;;;;;7.35;4.10;;;;;;;13.67;95.72;92928.06;5050399;28;20056;-75
2024/02/25 10:39:53;;;;;;;7.47;4.20;;;;;;;13.94;95.98;92950.66;5052940;28;20047;-75
2024/02/25 10:42:23;;;;;;;7.15;4.40;;;;;;;14.07;95.83;92942.59;5050909;28;20513;-75
2024/02/25 10:44:53;;;;;;;24.38;12.68;;;;;;;14.09;95.31;92948.31;5050157;28;20093;-75
2024/02/25 10:47:23;;;;;;;41.05;18.08;;;;;;;14.16;93.79;92946.34;5047480;28;20053;-75
2024/02/25 10:49:51;;;;;;;8.73;5.55;;;;;;;14.19;91.51;92947.66;5059616;28;20050;-75
2024/02/25 10:52:19;;;;;;;88.60;38.53;;;;;;;14.25;93.04;92946.69;5047409;28;20053;-75
2024/02/25 10:54:49;;;;;;;163.20;70.55;;;;;;;14.33;91.85;92934.38;5050469;28;20051;-75
2024/02/25 10:57:17;;;;;;;11.55;6.85;;;;;;;14.18;90.99;92932.38;5053101;28;20049;-75
2024/02/25 10:59:46;;;;;;;9.93;5.88;;;;;;;14.32;91.53;92928.44;5050147;28;20049;-75
2024/02/25 11:02:15;;;;;;;30.42;14.50;;;;;;;14.35;90.33;92925.38;5048399;28;20060;-75
2024/02/25 11:04:44;;;;;;;49.70;22.52;;;;;;;14.41;90.59;92921.06;5048965;28;20131;-75
2024/02/25 11:07:11;;;;;;;38.47;18.08;;;;;;;14.36;89.48;92910.66;5047597;28;20449;-75
2024/02/25 11:09:38;;;;;;;25.02;11.43;;;;;;;14.40;90.23;92919.50;5050869;28;20045;-75
2024/02/25 11:12:20;;;;;;;47.85;21.52;;;;;;;14.43;86.97;92919.81;5049608;28;20069;-75
2024/02/25 11:14:53;;;;;;;18.58;9.63;;;;;;;14.45;87.76;92911.03;5054267;28;20052;-75
2024/02/25 11:17:24;;;;;;;9.30;4.20;;;;;;;14.37;87.82;92915.59;5057421;28;20045;-75
2024/02/25 11:19:58;;;;;;;30.35;14.13;;;;;;;14.30;87.68;92891.72;5053788;28;20072;-75
2024/02/25 11:22:42;;;;;;;16.88;8.85;;;;;;;14.39;87.64;92903.22;5051842;28;20040;-75
2024/02/25 11:25:40;;;;;;;25.95;12.75;;;;;;;14.60;87.67;92905.25;5058222;28;20139;-75
2024/02/25 11:28:12;;;;;;;10.85;5.85;;;;;;;14.56;86.48;92908.31;5057312;28;20044;-75